METAR Data
IDs: Format: Raw Decoded Include TAF

Data at: 1921 UTC 31 Jul 2021

METAR for:KHGR (Hagerstown Rgnl, MD, US)
Text:KHGR 311853Z 00000KT 10SM CLR 27/08 A2997 RMK AO2 SLP154 T02670083 $
Temperature: 26.7°C ( 80°F)
Dewpoint: 8.3°C ( 47°F) [RH = 31%]
Pressure (altimeter):29.97 inches Hg (1015.0 mb) [Sea level pressure: 1015.4 mb]
Winds:calm
Visibility:10 or more sm (16+ km)
Ceiling:at least 12,000 feet AGL
Clouds:sky clear below 12,000 feet AGL
QC Flag:SOME DATA ABOVE MAY BE INACCURATE!!!"$" is an indication the sensor requires maintenance.